首页
METAR-TAF:

METAR-TAF

机场 :

山美納省, 多米尼加共和国

纬度: 19-16-12N, 经度: 69-44-15W, 海拔: 4米

当前天气观测

该预报发布于12分钟前的20:00 UTC
风速12节,风向
温度 31°C
湿度 75%
气压 1015 hPa
能见度10公里或以上
少量云层高于2000英尺, 积雨云.
散云层高于2200英尺

METAR: MDCY 242000Z 08012KT 9999 FEW020CB SCT022 31/26 Q1015 CB/E

时间: 16:12 (20:12 UTC)

预报

该预报发布于4小时和12分钟前的16:00 UTC
预报有效从24日的 18点(UTC)到 25日的 18点(UTC)
风速12节,风向
能见度10公里或以上
少量云层高于1600英尺, 积雨云.
散云层高于1800英尺
几率 40%
从 24日的 19点(UTC)到 24日的 23点(UTC)
能見度: 7000
少量云层高于1400英尺, 积雨云.
多云层高于1800英尺
多云层高于7000英尺
雷暴, 小雨

TAF: MDCY 241600Z 2418/2518 09012KT 9999 FEW016CB SCT018 PROB40 2419/2423 7000 -TSRA FEW014CB BKN018 BKN070

超过4000个机场的气象观测和天气预报(METAR&TAF报告)。

可查询的气象台以黄色和红色小点在地图上表示。

将鼠标移到小点上方,可查看气象台名称。

然后点击查看天气观测和预报。

如需切换地图:点击带黑十字的绿色按钮放大地图;点击带横线的绿色按钮缩小地图;或者点击绿色箭头查看邻近地区的地图。


METAR-TAF: